Time;durP1;ratioP1;P1;durP2;ratioP2;P2;SDS_P1;SDS_P2;PMS_P1;PMS_P2;Temp;Humidity;BMP_temperature;BMP_pressure;BME280_temperature;BME280_humidity;BME280_pressure;Samples;Min_cycle;Max_cycle;Signal;HPM_P1;HPM_P2
2022/01/19 00:00:16;;;;;;;3.22;2.10;;;6.30;99.90;;;;;;5112231;28;20412;-41
2022/01/19 00:02:42;;;;;;;2.60;2.40;;;6.20;99.90;;;;;;5112634;28;20552;-46
2022/01/19 00:05:09;;;;;;;3.80;2.15;;;6.20;99.90;;;;;;5112728;28;20027;-49
2022/01/19 00:07:35;;;;;;;3.17;2.95;;;6.30;99.90;;;;;;5112661;28;20020;-45
2022/01/19 00:10:04;;;;;;;3.13;2.20;;;6.30;99.90;;;;;;5112749;28;20073;-41
2022/01/19 00:12:31;;;;;;;2.00;1.90;;;6.30;99.90;;;;;;5113091;28;20051;-44
2022/01/19 00:14:57;;;;;;;2.42;2.28;;;6.30;99.90;;;;;;5113212;28;21356;-43
2022/01/19 00:17:22;;;;;;;2.50;1.70;;;6.30;99.90;;;;;;5113219;28;20103;-44
2022/01/19 00:19:48;;;;;;;2.20;2.00;;;6.30;99.90;;;;;;5112750;28;20506;-46
2022/01/19 00:22:13;;;;;;;2.10;2.00;;;6.30;99.90;;;;;;5112837;28;20035;-45
2022/01/19 00:24:40;;;;;;;1.75;1.70;;;6.20;99.90;;;;;;5113321;28;20152;-44
2022/01/19 00:27:05;;;;;;;2.15;2.05;;;6.20;99.90;;;;;;5112849;28;20051;-48
2022/01/19 00:29:31;;;;;;;2.47;1.80;;;6.20;99.90;;;;;;5112099;28;20111;-44
2022/01/19 00:31:57;;;;;;;2.28;2.17;;;6.20;99.90;;;;;;5112263;28;20028;-45
2022/01/19 00:34:22;;;;;;;2.03;1.92;;;6.10;99.90;;;;;;5112191;28;20023;-44
2022/01/19 00:36:48;;;;;;;2.10;1.90;;;6.10;99.90;;;;;;5111941;28;20110;-47
2022/01/19 00:39:13;;;;;;;4.35;1.63;;;6.20;99.90;;;;;;5111736;28;20023;-45
2022/01/19 00:41:39;;;;;;;2.58;1.83;;;6.10;99.90;;;;;;5112033;28;20031;-51
2022/01/19 00:44:04;;;;;;;2.88;1.70;;;6.10;99.90;;;;;;5112037;28;20027;-45
2022/01/19 00:46:30;;;;;;;3.00;1.50;;;6.10;99.90;;;;;;5111998;28;20028;-46
2022/01/19 00:48:55;;;;;;;1.92;1.73;;;6.10;99.90;;;;;;5112671;28;20130;-48
2022/01/19 00:51:21;;;;;;;1.70;1.60;;;6.10;99.90;;;;;;5112180;28;20445;-40
2022/01/19 00:53:46;;;;;;;1.83;1.73;;;6.10;99.90;;;;;;5111902;28;20541;-44
2022/01/19 00:56:12;;;;;;;2.50;2.20;;;6.10;99.90;;;;;;5112128;28;20031;-44
2022/01/19 00:58:38;;;;;;;2.35;1.80;;;6.10;99.90;;;;;;5112626;28;20019;-44
2022/01/19 01:01:03;;;;;;;3.30;2.20;;;6.10;99.90;;;;;;5111715;28;20020;-41
2022/01/19 01:03:29;;;;;;;1.98;1.88;;;6.10;99.90;;;;;;5111962;28;20027;-46
2022/01/19 01:05:54;;;;;;;1.73;1.63;;;6.20;99.90;;;;;;5111596;28;20077;-50
2022/01/19 01:08:20;;;;;;;1.52;1.42;;;6.20;99.90;;;;;;5111982;28;20035;-44
2022/01/19 01:10:45;;;;;;;2.85;1.70;;;6.10;99.90;;;;;;5111422;28;20487;-41
2022/01/19 01:13:21;;;;;;;2.28;1.80;;;6.20;99.90;;;;;;5111695;28;20098;-46
2022/01/19 01:15:59;;;;;;;2.03;1.75;;;6.10;99.90;;;;;;5111717;28;20027;-48
2022/01/19 01:18:25;;;;;;;3.00;2.80;;;6.10;99.90;;;;;;5111876;28;20024;-46
2022/01/19 01:20:54;;;;;;;4.20;2.92;;;6.00;99.90;;;;;;5111372;28;20020;-50
2022/01/19 01:23:23;;;;;;;7.45;3.90;;;6.00;99.90;;;;;;5111620;28;20023;-41
2022/01/19 01:25:50;;;;;;;4.45;3.05;;;6.00;99.90;;;;;;5111479;28;20098;-46
2022/01/19 01:28:17;;;;;;;4.45;2.85;;;6.00;99.90;;;;;;5111583;28;20517;-48
2022/01/19 01:30:42;;;;;;;2.78;2.08;;;6.00;99.90;;;;;;5111230;28;20445;-48
2022/01/19 01:33:08;;;;;;;3.15;2.45;;;6.00;99.90;;;;;;5111617;28;20024;-48
2022/01/19 01:35:34;;;;;;;2.40;2.17;;;6.00;99.90;;;;;;5111617;28;20049;-51
2022/01/19 01:38:01;;;;;;;5.18;2.10;;;6.10;99.90;;;;;;5111621;28;20163;-47
2022/01/19 01:40:27;;;;;;;1.75;1.65;;;6.10;99.90;;;;;;5111478;28;20015;-46
2022/01/19 01:42:55;;;;;;;2.17;1.98;;;6.10;99.90;;;;;;5112783;28;20084;-46
2022/01/19 01:45:26;;;;;;;2.00;1.90;;;6.20;99.90;;;;;;5111426;28;20371;-45
2022/01/19 01:48:01;;;;;;;4.82;3.17;;;6.10;99.90;;;;;;5111549;28;20107;-49
2022/01/19 01:53:26;;;;;;;7.22;3.72;;;6.10;99.90;;;;;;5111432;28;20472;-43
2022/01/19 01:56:13;;;;;;;5.82;3.25;;;6.10;99.90;;;;;;5110973;28;20077;-45
2022/01/19 01:58:42;;;;;;;4.32;2.92;;;6.10;99.90;;;;;;5111387;28;20048;-47
2022/01/19 02:01:09;;;;;;;5.70;2.80;;;6.10;99.90;;;;;;5110973;28;20590;-46
2022/01/19 02:03:39;;;;;;;2.35;1.75;;;6.00;99.90;;;;;;5111272;28;20051;-46
2022/01/19 02:09:10;;;;;;;4.22;2.35;;;6.00;99.90;;;;;;5112641;28;20024;-47
2022/01/19 02:23:09;;;;;;;7.13;2.35;;;5.90;99.90;;;;;;5114736;28;20034;-46
2022/01/19 02:25:40;;;;;;;2.13;1.75;;;6.00;99.90;;;;;;5114521;28;20471;-47
2022/01/19 02:41:39;;;;;;;4.95;2.10;;;5.90;99.90;;;;;;5114427;28;20034;-48
2022/01/19 02:44:09;;;;;;;2.70;2.50;;;5.90;99.90;;;;;;5114302;28;20107;-45
2022/01/19 02:46:54;;;;;;;6.00;2.47;;;5.80;99.90;;;;;;5114214;28;20026;-47
2022/01/19 02:49:21;;;;;;;3.45;2.33;;;5.80;99.90;;;;;;5095493;28;20027;-43
2022/01/19 02:51:50;;;;;;;2.30;1.77;;;5.80;99.90;;;;;;5114120;28;20043;-46
2022/01/19 02:54:23;;;;;;;2.67;2.10;;;5.80;99.90;;;;;;5114062;28;20019;-45
2022/01/19 02:56:52;;;;;;;5.88;2.55;;;5.80;99.90;;;;;;5113947;28;20119;-45
2022/01/19 02:59:26;;;;;;;3.75;2.22;;;5.80;99.90;;;;;;5113692;28;20043;-48
2022/01/19 03:10:05;;;;;;;2.20;2.00;;;5.70;99.90;;;;;;5113820;28;20066;-45
2022/01/19 03:12:30;;;;;;;2.35;2.03;;;5.70;99.90;;;;;;5113874;28;20652;-45
2022/01/19 03:14:56;;;;;;;1.75;1.65;;;5.70;99.90;;;;;;5113645;28;20024;-45
2022/01/19 03:17:22;;;;;;;1.95;1.80;;;5.70;99.90;;;;;;5113565;28;20027;-43
2022/01/19 03:19:48;;;;;;;3.60;2.22;;;5.70;99.90;;;;;;5113118;28;20479;-48
2022/01/19 03:22:13;;;;;;;2.45;2.25;;;5.60;99.90;;;;;;5113519;28;20142;-51
2022/01/19 03:24:48;;;;;;;1.83;1.70;;;5.60;99.90;;;;;;5113444;28;20019;-46
2022/01/19 03:27:13;;;;;;;2.60;2.15;;;5.60;99.90;;;;;;5113429;28;20041;-51
2022/01/19 03:29:39;;;;;;;4.13;2.17;;;5.70;99.90;;;;;;5113013;28;20606;-48
2022/01/19 03:32:04;;;;;;;2.78;2.03;;;5.60;99.90;;;;;;5113552;28;20387;-48
2022/01/19 03:34:30;;;;;;;2.28;2.08;;;5.60;99.90;;;;;;5113208;28;20035;-45
2022/01/19 03:36:56;;;;;;;2.25;2.00;;;5.60;99.90;;;;;;5113165;28;20051;-50
2022/01/19 03:39:22;;;;;;;2.90;2.10;;;5.50;99.90;;;;;;5113129;28;20302;-46
2022/01/19 03:41:48;;;;;;;5.05;2.40;;;5.50;99.90;;;;;;5113287;28;20081;-50
2022/01/19 03:44:14;;;;;;;3.03;2.70;;;5.50;99.90;;;;;;5113325;28;20499;-46
2022/01/19 03:46:53;;;;;;;4.22;2.50;;;5.60;99.90;;;;;;5113106;28;20027;-44
2022/01/19 03:49:24;;;;;;;3.47;2.78;;;5.60;99.90;;;;;;5112824;28;20035;-47
2022/01/19 03:51:50;;;;;;;2.65;2.42;;;5.60;99.90;;;;;;5113439;28;20119;-46
2022/01/19 03:54:16;;;;;;;3.67;2.92;;;5.60;99.90;;;;;;5112943;28;20023;-46
2022/01/19 03:56:41;;;;;;;4.20;3.47;;;5.40;99.90;;;;;;5112658;28;20050;-47
2022/01/19 03:59:07;;;;;;;6.03;3.50;;;5.30;99.90;;;;;;5112779;28;20027;-50
2022/01/19 04:01:32;;;;;;;5.35;4.05;;;5.30;99.90;;;;;;5112936;28;20051;-47
2022/01/19 04:06:58;;;;;;;5.57;3.78;;;5.10;99.90;;;;;;5039855;28;20528;-47
2022/01/19 04:09:25;;;;;;;6.03;5.03;;;5.20;99.90;;;;;;5112548;28;20016;-49
2022/01/19 04:11:51;;;;;;;6.47;4.30;;;5.10;99.90;;;;;;5112763;28;20033;-46
2022/01/19 04:14:24;;;;;;;4.45;4.05;;;5.10;99.90;;;;;;5112919;28;20024;-42
2022/01/19 04:16:56;;;;;;;6.85;4.32;;;5.00;99.90;;;;;;5112477;28;20027;-48
2022/01/19 04:19:26;;;;;;;5.32;4.82;;;5.10;99.90;;;;;;5112645;28;20024;-47
2022/01/19 04:21:52;;;;;;;5.32;4.22;;;5.00;99.90;;;;;;5112569;28;20106;-45
2022/01/19 04:24:18;;;;;;;7.32;5.38;;;5.00;99.90;;;;;;5112617;28;20016;-41
2022/01/19 04:26:45;;;;;;;6.95;4.80;;;4.90;99.90;;;;;;5112331;28;20500;-45
2022/01/19 04:29:10;;;;;;;5.82;5.15;;;4.90;99.90;;;;;;5112056;28;20405;-49
2022/01/19 04:31:36;;;;;;;7.72;4.90;;;4.80;99.90;;;;;;5111827;28;20099;-46
2022/01/19 04:34:04;;;;;;;6.35;5.47;;;4.80;99.90;;;;;;5112328;28;20441;-41
2022/01/19 04:36:46;;;;;;;7.40;5.85;;;4.80;99.90;;;;;;5112076;28;20047;-45
2022/01/19 04:43:51;;;;;;;7.43;5.70;;;4.70;99.90;;;;;;5111945;28;20483;-45
2022/01/19 04:45:39;;;;;;;6.65;5.88;;;4.70;99.90;;;;;;5112009;28;20092;-45
2022/01/19 05:06:45;;;;;;;7.45;5.80;;;4.30;99.90;;;;;;5112020;28;20023;-46
2022/01/19 05:09:26;;;;;;;5.90;5.30;;;4.20;99.90;;;;;;5112010;28;20015;-48
2022/01/19 05:14:36;;;;;;;7.75;5.88;;;4.20;99.90;;;;;;5111926;28;20034;-46
2022/01/19 05:17:02;;;;;;;9.48;6.13;;;4.30;99.90;;;;;;5111566;28;20023;-43
2022/01/19 05:19:27;;;;;;;7.28;6.03;;;4.30;99.90;;;;;;5111420;28;20426;-47
2022/01/19 05:21:53;;;;;;;7.25;5.30;;;4.30;99.90;;;;;;5111791;28;20031;-53
2022/01/19 05:24:19;;;;;;;6.53;5.22;;;4.20;99.90;;;;;;5111627;28;20035;-44
2022/01/19 05:26:46;;;;;;;8.02;5.30;;;4.20;99.90;;;;;;5111783;28;20030;-45
2022/01/19 05:29:11;;;;;;;7.65;5.03;;;4.20;99.90;;;;;;5111318;28;20020;-46
2022/01/19 05:31:37;;;;;;;9.85;6.05;;;4.20;99.90;;;;;;5111407;28;20047;-47
2022/01/19 05:34:03;;;;;;;7.00;5.95;;;4.20;99.90;;;;;;5093291;28;20023;-41
2022/01/19 05:36:29;;;;;;;5.65;5.05;;;4.20;99.90;;;;;;5111400;28;20160;-46
2022/01/19 05:38:54;;;;;;;7.47;5.78;;;4.20;99.90;;;;;;5111468;28;20074;-48
2022/01/19 05:41:21;;;;;;;11.48;5.78;;;4.20;99.90;;;;;;5111369;28;20026;-46
2022/01/19 05:43:47;;;;;;;11.07;6.50;;;4.20;99.90;;;;;;5113007;28;20015;-42
2022/01/19 05:46:12;;;;;;;6.75;5.60;;;4.20;99.90;;;;;;5115280;28;20019;-51
2022/01/19 05:48:38;;;;;;;6.22;5.63;;;4.10;99.90;;;;;;5097292;28;20031;-45
2022/01/19 05:51:04;;;;;;;5.75;4.82;;;4.10;99.90;;;;;;5114991;28;20376;-45
2022/01/19 05:53:30;;;;;;;6.32;4.90;;;4.00;99.90;;;;;;5115331;28;20040;-48
2022/01/19 05:55:56;;;;;;;6.30;4.40;;;4.00;99.90;;;;;;5115033;28;20039;-45
2022/01/19 05:58:21;;;;;;;4.95;4.45;;;3.80;99.90;;;;;;5135815;22;20043;-45
2022/01/19 06:00:47;;;;;;;4.45;3.97;;;3.80;99.90;;;;;;5114167;28;20080;-47
2022/01/19 06:03:12;;;;;;;5.50;4.15;;;3.70;99.90;;;;;;5114980;28;20020;-49
2022/01/19 06:05:38;;;;;;;6.43;4.55;;;3.60;99.90;;;;;;5115091;28;20027;-48
2022/01/19 06:09:00;;;;;;;6.10;4.43;;;3.50;99.90;;;;;;5115027;28;20035;-49
2022/01/19 06:10:54;;;;;;;6.32;4.55;;;3.50;99.90;;;;;;5103441;28;20067;-50
2022/01/19 06:13:21;;;;;;;6.60;5.53;;;3.50;99.90;;;;;;5096630;28;20045;-47
2022/01/19 06:15:47;;;;;;;6.28;5.38;;;3.40;99.90;;;;;;5114784;28;20462;-49
2022/01/19 06:18:14;;;;;;;10.38;6.60;;;3.40;99.90;;;;;;5114693;28;20063;-49
2022/01/19 06:20:40;;;;;;;7.35;5.20;;;3.40;99.90;;;;;;5114448;28;20020;-47
2022/01/19 06:23:06;;;;;;;6.50;5.70;;;3.30;99.90;;;;;;5114822;28;20024;-47
2022/01/19 06:25:32;;;;;;;7.53;5.72;;;3.20;99.90;;;;;;5115388;28;20058;-47
2022/01/19 06:27:58;;;;;;;9.80;5.40;;;3.30;99.90;;;;;;5114402;28;20047;-49
2022/01/19 06:30:23;;;;;;;8.90;5.85;;;3.30;99.90;;;;;;5114096;28;20024;-46
2022/01/19 06:32:49;;;;;;;10.77;7.57;;;3.30;99.90;;;;;;5114881;28;20028;-49
2022/01/19 06:35:15;;;;;;;8.48;6.28;;;3.30;99.90;;;;;;5114738;28;20020;-47
2022/01/19 06:37:40;;;;;;;8.07;5.55;;;3.30;99.90;;;;;;5114908;28;20386;-47
2022/01/19 06:40:09;;;;;;;7.82;5.90;;;3.30;99.90;;;;;;5114577;28;20057;-46
2022/01/19 06:42:34;;;;;;;6.72;5.65;;;3.30;99.90;;;;;;5116034;28;20368;-47
2022/01/19 06:45:01;;;;;;;6.72;5.15;;;3.30;99.90;;;;;;5105627;28;20027;-47
2022/01/19 06:47:27;;;;;;;8.30;5.78;;;3.30;99.90;;;;;;5123463;28;20047;-48
2022/01/19 06:49:53;;;;;;;7.05;5.40;;;3.40;99.90;;;;;;5117143;28;20028;-47
2022/01/19 06:52:18;;;;;;;9.38;5.72;;;3.20;99.90;;;;;;5096876;28;20065;-49
2022/01/19 06:54:44;;;;;;;6.15;5.55;;;3.20;99.90;;;;;;5095484;28;20069;-47
2022/01/19 06:57:09;;;;;;;8.68;5.70;;;3.10;99.90;;;;;;5114135;28;20031;-49
2022/01/19 06:59:35;;;;;;;6.78;5.20;;;3.10;99.90;;;;;;5113908;28;20023;-47
2022/01/19 07:02:00;;;;;;;6.88;4.88;;;3.00;99.90;;;;;;5114299;28;20011;-50
2022/01/19 07:04:26;;;;;;;9.10;5.82;;;3.00;99.90;;;;;;5114398;28;20024;-45
2022/01/19 07:06:51;;;;;;;6.97;5.43;;;3.00;99.90;;;;;;5114858;28;20023;-48
2022/01/19 07:09:17;;;;;;;8.68;5.47;;;2.90;99.90;;;;;;5096244;28;20438;-49
2022/01/19 07:11:43;;;;;;;6.10;5.50;;;3.00;99.90;;;;;;5115315;28;20530;-47
2022/01/19 07:14:12;;;;;;;8.18;5.85;;;2.90;99.90;;;;;;5097057;28;20099;-49
2022/01/19 07:16:38;;;;;;;7.10;5.65;;;2.90;99.90;;;;;;5115122;28;20027;-49
2022/01/19 07:19:03;;;;;;;10.27;6.15;;;3.00;99.90;;;;;;5114651;28;20394;-45
2022/01/19 07:21:29;;;;;;;7.78;5.72;;;3.00;99.90;;;;;;5114405;28;20024;-47
2022/01/19 07:23:54;;;;;;;13.45;6.03;;;2.90;99.90;;;;;;5114162;28;20098;-46
2022/01/19 07:26:20;;;;;;;12.57;6.82;;;2.80;99.90;;;;;;5113474;28;20039;-47
2022/01/19 07:28:46;;;;;;;6.82;5.32;;;2.70;99.90;;;;;;5113694;28;20027;-48
2022/01/19 07:31:12;;;;;;;8.55;6.50;;;2.70;99.90;;;;;;5113364;28;20035;-47
2022/01/19 07:33:37;;;;;;;8.32;5.97;;;2.70;99.90;;;;;;5095526;28;20379;-48
2022/01/19 07:36:03;;;;;;;8.65;5.95;;;2.70;99.90;;;;;;5095404;28;20494;-47
2022/01/19 07:38:28;;;;;;;7.85;5.82;;;2.70;99.90;;;;;;5114158;28;20024;-48
2022/01/19 07:40:54;;;;;;;11.65;6.47;;;2.70;99.90;;;;;;5095517;28;20030;-47
2022/01/19 07:43:20;;;;;;;10.00;6.28;;;2.70;99.90;;;;;;5113870;28;20023;-48
2022/01/19 07:45:46;;;;;;;9.00;6.43;;;2.70;99.90;;;;;;5113427;28;20031;-48
2022/01/19 07:48:12;;;;;;;8.18;6.80;;;2.70;99.90;;;;;;5113148;28;20031;-46
2022/01/19 07:50:38;;;;;;;9.52;7.07;;;2.80;99.90;;;;;;5112817;28;20089;-47
2022/01/19 07:53:04;;;;;;;8.80;7.88;;;2.80;99.90;;;;;;5113100;28;20095;-45
2022/01/19 07:55:30;;;;;;;10.32;6.90;;;2.90;99.90;;;;;;5112984;28;20526;-47
2022/01/19 07:57:55;;;;;;;8.18;6.53;;;2.90;99.90;;;;;;5112781;28;20106;-49
2022/01/19 08:00:21;;;;;;;11.77;8.07;;;2.90;99.90;;;;;;5112507;28;20019;-46
2022/01/19 08:02:49;;;;;;;10.52;7.75;;;3.00;99.90;;;;;;5112886;28;20028;-45
2022/01/19 08:05:15;;;;;;;11.43;7.57;;;3.10;99.90;;;;;;5112823;28;20535;-49
2022/01/19 08:07:41;;;;;;;14.80;10.20;;;3.10;99.90;;;;;;5094059;28;20500;-49
2022/01/19 08:10:09;;;;;;;10.77;8.35;;;3.20;99.90;;;;;;5112389;28;20111;-48
2022/01/19 08:12:35;;;;;;;15.25;9.68;;;3.20;99.90;;;;;;5108647;28;20031;-45
2022/01/19 08:15:01;;;;;;;12.35;8.73;;;3.30;99.90;;;;;;5099943;28;20395;-48
2022/01/19 08:17:27;;;;;;;11.20;8.85;;;3.20;99.90;;;;;;5092277;28;20020;-49
2022/01/19 08:19:54;;;;;;;11.23;8.30;;;3.20;99.90;;;;;;5109334;28;20019;-46
2022/01/19 08:22:19;;;;;;;12.27;9.82;;;3.20;99.90;;;;;;5113010;28;20027;-45
2022/01/19 08:24:45;;;;;;;12.93;11.02;;;3.10;99.90;;;;;;5108441;28;20027;-50
2022/01/19 08:27:11;;;;;;;15.18;9.20;;;3.10;99.90;;;;;;5110893;28;20031;-46
2022/01/19 08:29:36;;;;;;;18.33;10.20;;;3.00;99.90;;;;;;5109434;28;20112;-49
2022/01/19 08:32:03;;;;;;;16.67;9.15;;;3.10;99.90;;;;;;5093279;28;20070;-46
2022/01/19 08:34:29;;;;;;;12.10;8.52;;;3.10;99.90;;;;;;5112085;28;20027;-52
2022/01/19 08:36:55;;;;;;;12.27;9.20;;;3.10;99.90;;;;;;5112412;28;20026;-48
2022/01/19 08:39:21;;;;;;;12.55;8.65;;;3.20;99.90;;;;;;5103180;28;20720;-48
2022/01/19 08:41:46;;;;;;;14.07;8.77;;;3.20;99.90;;;;;;5077421;28;20030;-48
2022/01/19 08:44:12;;;;;;;11.73;8.45;;;3.30;99.90;;;;;;5112026;28;20083;-48
2022/01/19 08:46:39;;;;;;;12.77;9.35;;;3.40;99.90;;;;;;5111000;28;20118;-48
2022/01/19 08:49:04;;;;;;;13.02;9.55;;;3.40;99.90;;;;;;5099708;28;20044;-50
2022/01/19 08:51:30;;;;;;;13.40;8.98;;;3.50;99.90;;;;;;5104063;28;20020;-47
2022/01/19 08:53:56;;;;;;;14.23;10.23;;;3.50;99.90;;;;;;5111906;28;20032;-47
2022/01/19 08:56:21;;;;;;;13.55;10.00;;;3.50;99.90;;;;;;5103993;28;20078;-45
2022/01/19 08:58:47;;;;;;;11.55;9.18;;;3.70;99.90;;;;;;5092956;28;20195;-49
2022/01/19 09:01:13;;;;;;;16.15;10.70;;;3.70;99.90;;;;;;5111658;28;20031;-47
2022/01/19 09:03:38;;;;;;;13.95;10.15;;;3.70;99.90;;;;;;5093699;28;20118;-47
2022/01/19 09:06:04;;;;;;;15.20;9.90;;;3.80;99.90;;;;;;5112057;28;20054;-48
2022/01/19 09:08:31;;;;;;;14.07;10.18;;;3.90;99.90;;;;;;5112053;28;20026;-47
2022/01/19 09:10:58;;;;;;;12.07;9.52;;;4.40;99.90;;;;;;5111263;28;20019;-47
2022/01/19 09:13:27;;;;;;;11.68;8.45;;;5.40;99.90;;;;;;5112005;28;20050;-45
2022/01/19 09:15:53;;;;;;;16.98;9.82;;;6.30;99.90;;;;;;5093520;28;20384;-45
2022/01/19 09:18:18;;;;;;;17.27;10.23;;;7.20;99.90;;;;;;5114474;28;20016;-49
2022/01/19 09:20:44;;;;;;;12.88;8.80;;;8.00;99.90;;;;;;5115681;28;20028;-47
2022/01/19 09:23:10;;;;;;;12.88;8.00;;;8.70;99.90;;;;;;5116477;28;20053;-48
2022/01/19 09:25:35;;;;;;;14.45;8.40;;;9.20;99.90;;;;;;5116471;28;20065;-47
2022/01/19 09:28:01;;;;;;;16.17;9.27;;;10.00;97.60;;;;;;5116124;28;20027;-48
2022/01/19 09:30:27;;;;;;;10.05;8.18;;;9.90;97.50;;;;;;5115835;28;20395;-44
2022/01/19 09:33:10;;;;;;;14.13;9.55;;;9.80;97.00;;;;;;5098024;28;20024;-45
2022/01/19 09:38:36;;;;;;;12.65;8.68;;;10.20;97.80;;;;;;5116344;28;20067;-48
2022/01/19 09:41:02;;;;;;;15.02;9.25;;;10.50;96.30;;;;;;5115135;28;20019;-47
2022/01/19 09:43:28;;;;;;;11.05;8.45;;;10.40;96.00;;;;;;5115462;28;20103;-48
2022/01/19 09:45:56;;;;;;;13.40;8.90;;;10.40;95.70;;;;;;5115439;28;20107;-46
2022/01/19 09:48:24;;;;;;;13.70;8.88;;;10.20;95.90;;;;;;5115295;28;20475;-50
2022/01/19 09:50:49;;;;;;;11.30;8.82;;;10.00;96.70;;;;;;5114891;28;20088;-47
2022/01/19 09:53:15;;;;;;;13.77;8.95;;;9.90;96.70;;;;;;5115367;28;20053;-46
2022/01/19 09:55:41;;;;;;;12.20;9.10;;;9.60;97.40;;;;;;5115258;28;20043;-46
2022/01/19 09:58:08;;;;;;;14.73;8.48;;;9.80;97.60;;;;;;5115167;28;20106;-47
2022/01/19 10:00:34;;;;;;;11.88;9.07;;;9.60;98.00;;;;;;5114703;28;20016;-45
2022/01/19 10:03:22;;;;;;;12.38;8.60;;;9.50;97.80;;;;;;5096814;28;20107;-49
2022/01/19 10:05:56;;;;;;;18.48;11.77;;;8.40;99.00;;;;;;5115042;28;20035;-48
2022/01/19 10:08:28;;;;;;;15.43;10.60;;;7.60;99.90;;;;;;5096633;28;20051;-47
2022/01/19 10:11:12;;;;;;;17.83;10.77;;;6.80;99.90;;;;;;5114453;28;20111;-46
2022/01/19 10:16:59;;;;;;;18.63;11.90;;;5.70;99.90;;;;;;5115059;28;20115;-46
2022/01/19 10:19:26;;;;;;;17.67;11.93;;;5.40;99.90;;;;;;5114501;28;20020;-46
2022/01/19 10:22:07;;;;;;;19.80;12.07;;;5.20;99.90;;;;;;5114750;28;20019;-46
2022/01/19 10:24:39;;;;;;;17.05;11.38;;;5.10;99.90;;;;;;5096725;28;20030;-46
2022/01/19 10:27:26;;;;;;;22.02;11.88;;;5.00;99.90;;;;;;5114988;28;20024;-46
2022/01/19 10:30:13;;;;;;;18.58;12.13;;;4.80;99.90;;;;;;5113711;28;20030;-46
2022/01/19 10:33:00;;;;;;;20.75;13.45;;;4.80;99.90;;;;;;5114401;28;20024;-45
2022/01/19 10:35:33;;;;;;;20.73;12.18;;;4.80;99.90;;;;;;5114555;28;20483;-47
2022/01/19 10:38:15;;;;;;;22.45;13.10;;;4.70;99.90;;;;;;5113218;28;20057;-47
2022/01/19 10:41:02;;;;;;;20.48;12.57;;;4.60;99.90;;;;;;5113896;28;20510;-44
2022/01/19 10:43:32;;;;;;;22.35;13.48;;;4.60;99.90;;;;;;5114092;28;20066;-45
2022/01/19 10:46:20;;;;;;;16.88;12.02;;;4.60;99.90;;;;;;5112981;28;20027;-46
2022/01/19 10:48:45;;;;;;;17.05;12.10;;;4.60;99.90;;;;;;5077844;28;20032;-48
2022/01/19 10:51:16;;;;;;;18.88;12.57;;;4.60;99.90;;;;;;5111982;28;20028;-49
2022/01/19 10:53:45;;;;;;;17.75;12.32;;;4.60;99.90;;;;;;5092426;28;20020;-54
2022/01/19 10:56:29;;;;;;;21.23;12.65;;;4.60;99.90;;;;;;5098055;28;20391;-46
2022/01/19 10:59:00;;;;;;;20.70;12.05;;;4.60;99.90;;;;;;5097732;28;20081;-50
2022/01/19 11:01:52;;;;;;;20.20;12.65;;;4.60;99.90;;;;;;5113650;28;20026;-47
2022/01/19 11:04:34;;;;;;;18.23;12.68;;;4.50;99.90;;;;;;5113849;28;20482;-51
2022/01/19 11:07:01;;;;;;;21.10;12.65;;;4.50;99.90;;;;;;5113703;28;20038;-47
2022/01/19 11:09:28;;;;;;;18.42;12.25;;;4.50;99.90;;;;;;5112714;28;20027;-46
2022/01/19 11:12:09;;;;;;;26.58;12.80;;;4.60;99.90;;;;;;5104408;28;20038;-47
2022/01/19 11:14:36;;;;;;;21.98;13.95;;;4.50;99.90;;;;;;5095816;28;20058;-46
2022/01/19 11:17:02;;;;;;;16.30;12.30;;;4.60;99.90;;;;;;5113595;28;20513;-47
2022/01/19 11:19:28;;;;;;;20.23;12.77;;;4.60;99.90;;;;;;5095019;28;20100;-48
2022/01/19 11:22:05;;;;;;;21.73;12.38;;;4.60;99.90;;;;;;5105450;28;20480;-49
2022/01/19 11:24:47;;;;;;;19.92;12.38;;;4.60;99.90;;;;;;5093232;28;20028;-47
2022/01/19 11:27:14;;;;;;;22.67;13.02;;;4.60;99.90;;;;;;5098432;28;20031;-46
2022/01/19 11:29:40;;;;;;;21.10;13.35;;;4.50;99.90;;;;;;5103031;28;20042;-47
2022/01/19 11:32:15;;;;;;;20.35;13.23;;;4.50;99.90;;;;;;5093132;28;20099;-49
2022/01/19 11:34:50;;;;;;;19.23;13.10;;;4.50;99.90;;;;;;5111235;28;20023;-51
2022/01/19 11:37:37;;;;;;;23.67;13.85;;;4.50;99.90;;;;;;5094776;28;20102;-47
2022/01/19 11:40:13;;;;;;;24.25;14.90;;;4.40;99.90;;;;;;5112817;28;20409;-46
2022/01/19 11:42:40;;;;;;;18.63;14.07;;;4.40;99.90;;;;;;5112784;28;20024;-48
2022/01/19 11:45:09;;;;;;;26.63;15.10;;;4.30;99.90;;;;;;5112785;28;20028;-45
2022/01/19 11:47:36;;;;;;;20.52;14.05;;;4.30;99.90;;;;;;5102386;28;20077;-48
2022/01/19 11:50:04;;;;;;;18.02;13.25;;;4.30;99.90;;;;;;5092224;28;20028;-50
2022/01/19 11:52:38;;;;;;;24.35;15.57;;;4.30;99.90;;;;;;5074811;28;20024;-46
2022/01/19 11:55:17;;;;;;;22.30;14.95;;;4.30;99.90;;;;;;5094765;28;20058;-45
2022/01/19 11:57:46;;;;;;;25.80;14.13;;;4.30;99.90;;;;;;5133293;22;20046;-43
2022/01/19 12:00:12;;;;;;;29.48;14.55;;;4.30;99.90;;;;;;5113395;28;20020;-46
2022/01/19 12:02:49;;;;;;;23.23;14.65;;;4.20;99.90;;;;;;5113032;28;20023;-49
2022/01/19 12:05:24;;;;;;;24.15;15.90;;;4.30;99.90;;;;;;5112963;28;20103;-42
2022/01/19 12:08:12;;;;;;;29.13;16.48;;;4.30;99.90;;;;;;5112646;28;20020;-46
2022/01/19 12:10:44;;;;;;;26.52;16.00;;;4.20;99.90;;;;;;5112507;28;20062;-47
2022/01/19 12:16:15;;;;;;;27.23;16.30;;;4.20;99.90;;;;;;5112596;28;20034;-52
2022/01/19 12:18:45;;;;;;;26.63;15.80;;;4.10;99.90;;;;;;5112785;28;20016;-49
2022/01/19 12:21:35;;;;;;;24.73;16.13;;;4.10;99.90;;;;;;5112193;28;20023;-44
2022/01/19 12:24:37;;;;;;;24.40;15.48;;;4.10;99.90;;;;;;5112550;28;20387;-43
2022/01/19 12:27:15;;;;;;;26.75;15.73;;;4.10;99.90;;;;;;5112764;28;20454;-42
2022/01/19 12:30:06;;;;;;;31.40;18.17;;;4.10;99.90;;;;;;5111351;28;20034;-49
2022/01/19 12:32:38;;;;;;;29.80;17.02;;;4.20;99.90;;;;;;5084992;28;20055;-48
2022/01/19 12:35:04;;;;;;;27.85;16.20;;;4.20;99.90;;;;;;5087010;28;20103;-43
2022/01/19 12:37:32;;;;;;;28.17;16.15;;;4.20;99.90;;;;;;5075931;28;20178;-46
2022/01/19 12:40:03;;;;;;;26.77;16.75;;;4.10;99.90;;;;;;5101254;28;20097;-48
2022/01/19 12:42:46;;;;;;;31.75;17.70;;;4.10;99.90;;;;;;5102089;28;20039;-44
2022/01/19 12:45:22;;;;;;;30.33;17.58;;;4.10;99.90;;;;;;5091306;28;20364;-45
2022/01/19 12:47:51;;;;;;;27.35;17.77;;;4.00;99.90;;;;;;5096136;28;20035;-47
2022/01/19 12:50:16;;;;;;;29.17;17.27;;;4.00;99.90;;;;;;5111925;28;20027;-47
2022/01/19 12:52:57;;;;;;;31.67;18.35;;;4.00;99.90;;;;;;5098172;28;20028;-45
2022/01/19 12:55:27;;;;;;;29.92;17.60;;;3.90;99.90;;;;;;5092472;28;20374;-46
2022/01/19 12:57:57;;;;;;;32.35;16.92;;;3.90;99.90;;;;;;5091864;28;20032;-49
2022/01/19 13:00:28;;;;;;;35.35;18.98;;;3.90;99.90;;;;;;5091357;28;20048;-47
2022/01/19 13:02:54;;;;;;;25.52;15.32;;;3.90;99.90;;;;;;5093592;28;20027;-47
2022/01/19 13:05:20;;;;;;;25.67;16.35;;;3.90;99.90;;;;;;5112530;28;20089;-47
2022/01/19 13:07:51;;;;;;;28.35;15.85;;;3.90;99.90;;;;;;5099988;28;20032;-45
2022/01/19 13:10:50;;;;;;;26.60;16.02;;;3.90;99.90;;;;;;5090145;28;20514;-45
2022/01/19 13:13:29;;;;;;;25.83;14.75;;;3.90;99.90;;;;;;5091913;28;20056;-46
2022/01/19 13:16:00;;;;;;;24.63;14.30;;;3.90;99.90;;;;;;5092059;28;20020;-46
2022/01/19 13:18:42;;;;;;;25.35;14.70;;;3.90;99.90;;;;;;5091375;28;20028;-49
2022/01/19 13:21:15;;;;;;;24.75;14.63;;;3.90;99.90;;;;;;5070814;28;20383;-47
2022/01/19 13:23:57;;;;;;;24.80;14.75;;;3.90;99.90;;;;;;5072024;28;20484;-45
2022/01/19 13:26:24;;;;;;;26.45;15.00;;;3.90;99.90;;;;;;5082341;28;20032;-47
2022/01/19 13:28:50;;;;;;;24.17;15.25;;;3.90;99.90;;;;;;5071669;28;20040;-47
2022/01/19 13:31:20;;;;;;;26.00;15.27;;;3.90;99.90;;;;;;5069620;28;20033;-46
2022/01/19 13:34:15;;;;;;;25.65;14.43;;;3.90;99.90;;;;;;5071455;28;20036;-44
2022/01/19 13:36:41;;;;;;;24.05;14.30;;;3.90;99.90;;;;;;5052786;28;20496;-46
2022/01/19 13:39:06;;;;;;;26.13;15.20;;;3.80;99.90;;;;;;5071206;28;20032;-50
2022/01/19 13:41:32;;;;;;;25.80;14.32;;;3.90;99.90;;;;;;5071733;28;20056;-45
2022/01/19 13:44:05;;;;;;;23.38;15.18;;;3.90;99.90;;;;;;5071368;28;20055;-45
2022/01/19 13:46:32;;;;;;;21.35;13.85;;;3.80;99.90;;;;;;5071146;28;20108;-41
2022/01/19 13:49:01;;;;;;;23.58;13.80;;;3.80;99.90;;;;;;5070848;28;20023;-43
2022/01/19 13:51:29;;;;;;;27.95;14.30;;;3.90;99.90;;;;;;5071195;28;20400;-45
2022/01/19 13:53:59;;;;;;;20.58;14.35;;;3.90;99.90;;;;;;5073370;28;20023;-46
2022/01/19 13:56:32;;;;;;;25.08;14.38;;;4.00;99.90;;;;;;5072025;28;20036;-41
2022/01/19 13:59:19;;;;;;;24.90;15.43;;;3.90;99.90;;;;;;5069906;28;20033;-47
2022/01/19 14:02:02;;;;;;;24.05;14.38;;;3.90;99.90;;;;;;5072762;28;20094;-47
2022/01/19 14:04:33;;;;;;;24.98;15.52;;;3.90;99.90;;;;;;5073811;28;20460;-45
2022/01/19 14:07:10;;;;;;;21.90;14.48;;;3.90;99.90;;;;;;5075314;28;20032;-47
2022/01/19 14:09:36;;;;;;;24.95;14.60;;;3.90;99.90;;;;;;5074868;28;20032;-45
2022/01/19 14:12:03;;;;;;;26.50;15.40;;;3.90;99.90;;;;;;5074322;28;20039;-41
2022/01/19 14:14:37;;;;;;;31.42;16.35;;;3.90;99.90;;;;;;5074503;28;20078;-48